Cairo, Egypt
Current Conditions -  °F | °C
As of 3:30 PM on Friday 28 Nov 2014 (Local Time) from HECA Reporting Station
Clear Clear  
Wind Chill: 21°   Ceiling: Unl
Heat Index: 21°   Visibility: 6mi
Dew Point:   Wind: 7mph
Humidity: 43%   Direction: 350°N
Pressure: 30.21"   Gusts: NA
Location:  30.06°N, 31.25°E
Report Text: HECA 281330Z 35006KT CAVOK 21/08 Q1023 NOSIG
Loading
Personal Weather Stations






























Interactive Weather Map New forecast layout! Learn more

10-Day Weather Forecast

Advertisements
Track Severe Weather on mobile